sensor_id;sensor_type;location;lat;lon;timestamp;P1;durP1;ratioP1;P2;durP2;ratioP2
18623;SDS011;9441;51.420;7.036;2022-07-23T00:00:31;22.20;;;12.00;;
18623;SDS011;9441;51.420;7.036;2022-07-23T00:01:32;19.63;;;13.50;;
18623;SDS011;9441;51.420;7.036;2022-07-23T00:02:35;22.67;;;13.40;;
18623;SDS011;9441;51.420;7.036;2022-07-23T00:03:36;20.00;;;12.55;;
18623;SDS011;9441;51.420;7.036;2022-07-23T00:04:38;20.80;;;12.88;;
18623;SDS011;9441;51.420;7.036;2022-07-23T00:05:39;19.30;;;12.88;;
18623;SDS011;9441;51.420;7.036;2022-07-23T00:06:41;27.10;;;13.48;;
18623;SDS011;9441;51.420;7.036;2022-07-23T00:07:42;25.65;;;13.30;;
18623;SDS011;9441;51.420;7.036;2022-07-23T00:08:44;21.92;;;12.63;;
18623;SDS011;9441;51.420;7.036;2022-07-23T00:09:45;21.85;;;12.88;;
18623;SDS011;9441;51.420;7.036;2022-07-23T00:10:49;22.42;;;13.27;;
18623;SDS011;9441;51.420;7.036;2022-07-23T00:11:50;31.50;;;13.80;;
18623;SDS011;9441;51.420;7.036;2022-07-23T00:12:52;20.88;;;12.55;;
18623;SDS011;9441;51.420;7.036;2022-07-23T00:13:53;18.42;;;12.40;;
18623;SDS011;9441;51.420;7.036;2022-07-23T00:14:56;23.55;;;13.27;;
18623;SDS011;9441;51.420;7.036;2022-07-23T00:15:57;21.52;;;14.18;;
18623;SDS011;9441;51.420;7.036;2022-07-23T00:16:59;20.63;;;13.98;;
18623;SDS011;9441;51.420;7.036;2022-07-23T00:18:00;18.02;;;12.73;;
18623;SDS011;9441;51.420;7.036;2022-07-23T00:19:02;21.13;;;13.40;;
18623;SDS011;9441;51.420;7.036;2022-07-23T00:20:04;21.33;;;13.63;;
18623;SDS011;9441;51.420;7.036;2022-07-23T00:21:07;20.45;;;12.82;;
18623;SDS011;9441;51.420;7.036;2022-07-23T00:22:08;25.20;;;13.77;;
18623;SDS011;9441;51.420;7.036;2022-07-23T00:23:11;20.15;;;13.70;;
18623;SDS011;9441;51.420;7.036;2022-07-23T00:24:12;22.70;;;13.38;;
18623;SDS011;9441;51.420;7.036;2022-07-23T00:25:14;20.13;;;13.75;;
18623;SDS011;9441;51.420;7.036;2022-07-23T00:26:16;21.48;;;14.27;;
18623;SDS011;9441;51.420;7.036;2022-07-23T00:27:18;20.77;;;14.23;;
18623;SDS011;9441;51.420;7.036;2022-07-23T00:28:20;25.08;;;14.00;;
18623;SDS011;9441;51.420;7.036;2022-07-23T00:29:22;26.25;;;14.30;;
18623;SDS011;9441;51.420;7.036;2022-07-23T00:30:23;19.25;;;13.88;;
18623;SDS011;9441;51.420;7.036;2022-07-23T00:31:25;20.77;;;14.50;;
18623;SDS011;9441;51.420;7.036;2022-07-23T00:32:28;24.90;;;15.43;;
18623;SDS011;9441;51.420;7.036;2022-07-23T00:33:31;24.02;;;14.73;;
18623;SDS011;9441;51.420;7.036;2022-07-23T00:34:32;23.33;;;14.70;;
18623;SDS011;9441;51.420;7.036;2022-07-23T00:35:35;24.40;;;15.23;;
18623;SDS011;9441;51.420;7.036;2022-07-23T00:36:37;23.13;;;15.18;;
18623;SDS011;9441;51.420;7.036;2022-07-23T00:37:39;23.23;;;15.40;;
18623;SDS011;9441;51.420;7.036;2022-07-23T00:38:41;28.88;;;15.35;;
18623;SDS011;9441;51.420;7.036;2022-07-23T00:39:43;23.55;;;15.25;;
18623;SDS011;9441;51.420;7.036;2022-07-23T00:40:44;27.23;;;16.65;;
18623;SDS011;9441;51.420;7.036;2022-07-23T00:41:47;30.13;;;15.93;;
18623;SDS011;9441;51.420;7.036;2022-07-23T00:42:49;26.35;;;15.52;;
18623;SDS011;9441;51.420;7.036;2022-07-23T00:43:51;32.40;;;16.50;;
18623;SDS011;9441;51.420;7.036;2022-07-23T00:44:52;28.05;;;15.55;;
18623;SDS011;9441;51.420;7.036;2022-07-23T00:45:54;25.92;;;15.73;;
18623;SDS011;9441;51.420;7.036;2022-07-23T00:46:56;26.77;;;16.23;;
18623;SDS011;9441;51.420;7.036;2022-07-23T00:47:59;25.02;;;16.10;;
18623;SDS011;9441;51.420;7.036;2022-07-23T00:49:00;25.83;;;16.73;;
18623;SDS011;9441;51.420;7.036;2022-07-23T00:50:03;27.73;;;16.23;;
18623;SDS011;9441;51.420;7.036;2022-07-23T00:51:06;28.58;;;16.15;;
18623;SDS011;9441;51.420;7.036;2022-07-23T00:52:08;25.65;;;16.35;;
18623;SDS011;9441;51.420;7.036;2022-07-23T00:53:09;31.10;;;17.60;;
18623;SDS011;9441;51.420;7.036;2022-07-23T00:54:12;25.42;;;16.23;;
18623;SDS011;9441;51.420;7.036;2022-07-23T00:55:14;25.58;;;16.63;;
18623;SDS011;9441;51.420;7.036;2022-07-23T00:56:16;26.63;;;16.10;;
18623;SDS011;9441;51.420;7.036;2022-07-23T00:57:19;36.25;;;17.50;;
18623;SDS011;9441;51.420;7.036;2022-07-23T00:58:21;26.25;;;16.95;;
18623;SDS011;9441;51.420;7.036;2022-07-23T00:59:22;24.92;;;16.63;;
18623;SDS011;9441;51.420;7.036;2022-07-23T01:00:24;29.52;;;17.15;;
18623;SDS011;9441;51.420;7.036;2022-07-23T01:01:25;29.85;;;16.60;;
18623;SDS011;9441;51.420;7.036;2022-07-23T01:02:28;29.70;;;17.63;;
18623;SDS011;9441;51.420;7.036;2022-07-23T01:03:29;28.10;;;16.33;;
18623;SDS011;9441;51.420;7.036;2022-07-23T01:04:31;29.38;;;17.23;;
18623;SDS011;9441;51.420;7.036;2022-07-23T01:05:32;31.02;;;17.92;;
18623;SDS011;9441;51.420;7.036;2022-07-23T01:06:35;28.30;;;16.70;;
18623;SDS011;9441;51.420;7.036;2022-07-23T01:07:38;28.48;;;17.10;;
18623;SDS011;9441;51.420;7.036;2022-07-23T01:08:40;31.98;;;17.55;;
18623;SDS011;9441;51.420;7.036;2022-07-23T01:09:43;26.92;;;16.75;;
18623;SDS011;9441;51.420;7.036;2022-07-23T01:10:45;33.30;;;16.80;;
18623;SDS011;9441;51.420;7.036;2022-07-23T01:11:48;34.80;;;17.45;;
18623;SDS011;9441;51.420;7.036;2022-07-23T01:12:54;33.95;;;18.42;;
18623;SDS011;9441;51.420;7.036;2022-07-23T01:13:55;34.85;;;18.00;;
18623;SDS011;9441;51.420;7.036;2022-07-23T01:14:58;31.67;;;18.77;;
18623;SDS011;9441;51.420;7.036;2022-07-23T01:16:01;30.55;;;18.40;;
18623;SDS011;9441;51.420;7.036;2022-07-23T01:17:04;32.25;;;17.98;;
18623;SDS011;9441;51.420;7.036;2022-07-23T01:18:05;31.38;;;17.38;;
18623;SDS011;9441;51.420;7.036;2022-07-23T01:19:10;32.45;;;18.13;;
18623;SDS011;9441;51.420;7.036;2022-07-23T01:20:14;27.80;;;17.38;;
18623;SDS011;9441;51.420;7.036;2022-07-23T01:21:17;32.22;;;18.63;;
18623;SDS011;9441;51.420;7.036;2022-07-23T01:22:19;31.83;;;18.40;;
18623;SDS011;9441;51.420;7.036;2022-07-23T01:23:23;29.30;;;18.73;;
18623;SDS011;9441;51.420;7.036;2022-07-23T01:24:28;30.75;;;17.98;;
18623;SDS011;9441;51.420;7.036;2022-07-23T01:25:34;29.77;;;17.92;;
18623;SDS011;9441;51.420;7.036;2022-07-23T01:26:37;31.92;;;17.85;;
18623;SDS011;9441;51.420;7.036;2022-07-23T01:27:41;30.77;;;17.80;;
18623;SDS011;9441;51.420;7.036;2022-07-23T01:28:43;27.27;;;17.08;;
18623;SDS011;9441;51.420;7.036;2022-07-23T01:29:45;29.75;;;18.63;;
18623;SDS011;9441;51.420;7.036;2022-07-23T01:30:52;28.50;;;18.25;;
18623;SDS011;9441;51.420;7.036;2022-07-23T01:31:54;33.78;;;17.77;;
18623;SDS011;9441;51.420;7.036;2022-07-23T01:32:55;29.98;;;17.73;;
18623;SDS011;9441;51.420;7.036;2022-07-23T01:33:58;32.83;;;18.92;;
18623;SDS011;9441;51.420;7.036;2022-07-23T01:34:59;42.88;;;19.00;;
18623;SDS011;9441;51.420;7.036;2022-07-23T01:36:01;31.67;;;18.40;;
18623;SDS011;9441;51.420;7.036;2022-07-23T01:37:02;33.67;;;18.88;;
18623;SDS011;9441;51.420;7.036;2022-07-23T01:38:05;35.13;;;18.80;;
18623;SDS011;9441;51.420;7.036;2022-07-23T01:39:07;34.95;;;19.05;;
18623;SDS011;9441;51.420;7.036;2022-07-23T01:40:09;37.03;;;18.90;;
18623;SDS011;9441;51.420;7.036;2022-07-23T01:41:11;29.65;;;18.92;;
18623;SDS011;9441;51.420;7.036;2022-07-23T01:42:13;32.40;;;18.02;;
18623;SDS011;9441;51.420;7.036;2022-07-23T01:43:15;31.45;;;18.17;;
18623;SDS011;9441;51.420;7.036;2022-07-23T01:44:17;32.38;;;18.67;;
18623;SDS011;9441;51.420;7.036;2022-07-23T01:45:18;34.55;;;19.20;;
18623;SDS011;9441;51.420;7.036;2022-07-23T01:46:24;35.05;;;18.65;;
18623;SDS011;9441;51.420;7.036;2022-07-23T01:47:25;33.28;;;19.63;;
18623;SDS011;9441;51.420;7.036;2022-07-23T01:48:29;35.35;;;19.88;;
18623;SDS011;9441;51.420;7.036;2022-07-23T01:50:00;34.20;;;18.58;;
18623;SDS011;9441;51.420;7.036;2022-07-23T01:51:02;31.95;;;18.55;;
18623;SDS011;9441;51.420;7.036;2022-07-23T01:52:15;35.47;;;19.23;;
18623;SDS011;9441;51.420;7.036;2022-07-23T01:53:20;33.42;;;18.27;;
18623;SDS011;9441;51.420;7.036;2022-07-23T01:54:22;33.15;;;18.27;;
18623;SDS011;9441;51.420;7.036;2022-07-23T01:55:25;35.75;;;18.85;;
18623;SDS011;9441;51.420;7.036;2022-07-23T01:56:26;31.65;;;18.50;;
18623;SDS011;9441;51.420;7.036;2022-07-23T01:57:28;34.50;;;19.30;;
18623;SDS011;9441;51.420;7.036;2022-07-23T01:58:30;32.33;;;19.33;;
18623;SDS011;9441;51.420;7.036;2022-07-23T01:59:32;37.58;;;19.67;;
18623;SDS011;9441;51.420;7.036;2022-07-23T02:00:33;32.80;;;18.52;;
18623;SDS011;9441;51.420;7.036;2022-07-23T02:01:35;34.63;;;17.95;;
18623;SDS011;9441;51.420;7.036;2022-07-23T02:02:37;33.17;;;17.90;;
18623;SDS011;9441;51.420;7.036;2022-07-23T02:03:39;29.00;;;17.30;;
18623;SDS011;9441;51.420;7.036;2022-07-23T02:04:42;31.90;;;18.17;;
18623;SDS011;9441;51.420;7.036;2022-07-23T02:05:43;32.28;;;17.83;;
18623;SDS011;9441;51.420;7.036;2022-07-23T02:06:45;29.13;;;17.08;;
18623;SDS011;9441;51.420;7.036;2022-07-23T02:07:46;28.25;;;17.55;;
18623;SDS011;9441;51.420;7.036;2022-07-23T02:08:48;31.33;;;17.23;;
18623;SDS011;9441;51.420;7.036;2022-07-23T02:09:51;32.03;;;18.05;;
18623;SDS011;9441;51.420;7.036;2022-07-23T02:10:53;28.90;;;17.30;;
18623;SDS011;9441;51.420;7.036;2022-07-23T02:11:55;30.65;;;17.55;;
18623;SDS011;9441;51.420;7.036;2022-07-23T02:12:56;31.13;;;18.75;;
18623;SDS011;9441;51.420;7.036;2022-07-23T02:13:58;30.00;;;17.77;;
18623;SDS011;9441;51.420;7.036;2022-07-23T02:15:00;28.73;;;16.63;;
18623;SDS011;9441;51.420;7.036;2022-07-23T02:16:02;34.22;;;18.17;;
18623;SDS011;9441;51.420;7.036;2022-07-23T02:17:04;32.97;;;17.45;;
18623;SDS011;9441;51.420;7.036;2022-07-23T02:18:06;37.35;;;19.83;;
18623;SDS011;9441;51.420;7.036;2022-07-23T02:19:08;33.50;;;18.50;;
18623;SDS011;9441;51.420;7.036;2022-07-23T02:20:11;31.67;;;18.80;;
18623;SDS011;9441;51.420;7.036;2022-07-23T02:21:12;35.35;;;19.33;;
18623;SDS011;9441;51.420;7.036;2022-07-23T02:22:14;31.20;;;18.85;;
18623;SDS011;9441;51.420;7.036;2022-07-23T02:23:15;30.55;;;18.27;;
18623;SDS011;9441;51.420;7.036;2022-07-23T02:24:17;28.48;;;18.48;;
18623;SDS011;9441;51.420;7.036;2022-07-23T02:25:20;32.60;;;18.95;;
18623;SDS011;9441;51.420;7.036;2022-07-23T02:26:22;34.63;;;18.40;;
18623;SDS011;9441;51.420;7.036;2022-07-23T02:27:26;34.45;;;18.40;;
18623;SDS011;9441;51.420;7.036;2022-07-23T02:28:28;37.50;;;17.92;;
18623;SDS011;9441;51.420;7.036;2022-07-23T02:29:31;32.97;;;18.13;;
18623;SDS011;9441;51.420;7.036;2022-07-23T02:30:33;30.90;;;17.13;;
18623;SDS011;9441;51.420;7.036;2022-07-23T02:31:34;38.97;;;19.83;;
18623;SDS011;9441;51.420;7.036;2022-07-23T02:32:37;36.38;;;19.15;;
18623;SDS011;9441;51.420;7.036;2022-07-23T02:33:39;30.10;;;18.83;;
18623;SDS011;9441;51.420;7.036;2022-07-23T02:34:41;34.05;;;18.02;;
18623;SDS011;9441;51.420;7.036;2022-07-23T02:35:43;30.73;;;17.75;;
18623;SDS011;9441;51.420;7.036;2022-07-23T02:36:45;33.58;;;17.77;;
18623;SDS011;9441;51.420;7.036;2022-07-23T02:37:47;29.50;;;18.50;;
18623;SDS011;9441;51.420;7.036;2022-07-23T02:38:49;32.75;;;18.30;;
18623;SDS011;9441;51.420;7.036;2022-07-23T02:39:50;26.67;;;16.58;;
18623;SDS011;9441;51.420;7.036;2022-07-23T02:40:54;27.83;;;16.98;;
18623;SDS011;9441;51.420;7.036;2022-07-23T02:41:55;33.70;;;17.15;;
18623;SDS011;9441;51.420;7.036;2022-07-23T02:42:58;31.77;;;17.35;;
18623;SDS011;9441;51.420;7.036;2022-07-23T02:44:00;29.55;;;17.63;;
18623;SDS011;9441;51.420;7.036;2022-07-23T02:45:01;48.95;;;19.92;;
18623;SDS011;9441;51.420;7.036;2022-07-23T02:46:03;29.05;;;16.92;;
18623;SDS011;9441;51.420;7.036;2022-07-23T02:47:05;28.02;;;16.77;;
18623;SDS011;9441;51.420;7.036;2022-07-23T02:48:07;29.48;;;16.95;;
18623;SDS011;9441;51.420;7.036;2022-07-23T02:49:09;28.67;;;17.08;;
18623;SDS011;9441;51.420;7.036;2022-07-23T02:50:11;28.02;;;18.10;;
18623;SDS011;9441;51.420;7.036;2022-07-23T02:51:13;35.58;;;19.92;;
18623;SDS011;9441;51.420;7.036;2022-07-23T02:52:17;33.67;;;19.02;;
18623;SDS011;9441;51.420;7.036;2022-07-23T02:53:18;34.92;;;19.58;;
18623;SDS011;9441;51.420;7.036;2022-07-23T02:54:25;32.33;;;19.08;;
18623;SDS011;9441;51.420;7.036;2022-07-23T02:55:27;36.60;;;19.23;;
18623;SDS011;9441;51.420;7.036;2022-07-23T02:56:30;35.67;;;19.55;;
18623;SDS011;9441;51.420;7.036;2022-07-23T02:57:32;35.90;;;18.48;;
18623;SDS011;9441;51.420;7.036;2022-07-23T02:58:34;32.95;;;19.30;;
18623;SDS011;9441;51.420;7.036;2022-07-23T02:59:36;33.65;;;18.52;;
18623;SDS011;9441;51.420;7.036;2022-07-23T03:00:38;34.13;;;18.70;;
18623;SDS011;9441;51.420;7.036;2022-07-23T03:01:39;33.40;;;19.75;;
18623;SDS011;9441;51.420;7.036;2022-07-23T03:02:42;31.92;;;19.63;;
18623;SDS011;9441;51.420;7.036;2022-07-23T03:03:43;33.33;;;18.77;;
18623;SDS011;9441;51.420;7.036;2022-07-23T03:04:45;40.72;;;19.55;;
18623;SDS011;9441;51.420;7.036;2022-07-23T03:05:46;32.33;;;18.85;;
18623;SDS011;9441;51.420;7.036;2022-07-23T03:06:48;31.05;;;17.52;;
18623;SDS011;9441;51.420;7.036;2022-07-23T03:07:49;40.35;;;19.13;;
18623;SDS011;9441;51.420;7.036;2022-07-23T03:08:52;31.08;;;17.83;;
18623;SDS011;9441;51.420;7.036;2022-07-23T03:09:53;30.85;;;18.02;;
18623;SDS011;9441;51.420;7.036;2022-07-23T03:10:56;28.15;;;18.15;;
18623;SDS011;9441;51.420;7.036;2022-07-23T03:11:59;33.53;;;19.33;;
18623;SDS011;9441;51.420;7.036;2022-07-23T03:13:01;38.67;;;19.08;;
18623;SDS011;9441;51.420;7.036;2022-07-23T03:14:03;33.78;;;17.77;;
18623;SDS011;9441;51.420;7.036;2022-07-23T03:15:06;28.80;;;17.50;;
18623;SDS011;9441;51.420;7.036;2022-07-23T03:16:08;33.50;;;17.65;;
18623;SDS011;9441;51.420;7.036;2022-07-23T03:17:11;28.85;;;17.80;;
18623;SDS011;9441;51.420;7.036;2022-07-23T03:18:12;34.05;;;18.65;;
18623;SDS011;9441;51.420;7.036;2022-07-23T03:19:14;30.02;;;18.25;;
18623;SDS011;9441;51.420;7.036;2022-07-23T03:20:15;33.58;;;17.17;;
18623;SDS011;9441;51.420;7.036;2022-07-23T03:21:18;28.10;;;17.35;;
18623;SDS011;9441;51.420;7.036;2022-07-23T03:22:19;32.70;;;16.73;;
18623;SDS011;9441;51.420;7.036;2022-07-23T03:23:22;28.08;;;18.42;;
18623;SDS011;9441;51.420;7.036;2022-07-23T03:24:23;32.28;;;18.35;;
18623;SDS011;9441;51.420;7.036;2022-07-23T03:25:45;32.13;;;18.67;;
18623;SDS011;9441;51.420;7.036;2022-07-23T03:26:48;34.47;;;18.60;;
18623;SDS011;9441;51.420;7.036;2022-07-23T03:27:52;28.63;;;17.40;;
18623;SDS011;9441;51.420;7.036;2022-07-23T03:28:53;31.23;;;18.45;;
18623;SDS011;9441;51.420;7.036;2022-07-23T03:29:55;30.15;;;17.58;;
18623;SDS011;9441;51.420;7.036;2022-07-23T03:30:57;30.58;;;17.60;;
18623;SDS011;9441;51.420;7.036;2022-07-23T03:32:00;31.02;;;17.27;;
18623;SDS011;9441;51.420;7.036;2022-07-23T03:33:02;29.77;;;16.88;;
18623;SDS011;9441;51.420;7.036;2022-07-23T03:34:04;27.08;;;17.35;;
18623;SDS011;9441;51.420;7.036;2022-07-23T03:35:05;30.05;;;17.20;;
18623;SDS011;9441;51.420;7.036;2022-07-23T03:36:09;30.02;;;18.27;;
18623;SDS011;9441;51.420;7.036;2022-07-23T03:37:15;32.42;;;18.33;;
18623;SDS011;9441;51.420;7.036;2022-07-23T03:38:16;26.80;;;17.45;;
18623;SDS011;9441;51.420;7.036;2022-07-23T03:39:18;27.98;;;17.05;;
18623;SDS011;9441;51.420;7.036;2022-07-23T03:40:19;29.02;;;16.63;;
18623;SDS011;9441;51.420;7.036;2022-07-23T03:41:21;24.40;;;17.00;;
18623;SDS011;9441;51.420;7.036;2022-07-23T03:42:22;31.85;;;18.25;;
18623;SDS011;9441;51.420;7.036;2022-07-23T03:43:26;29.83;;;17.80;;
18623;SDS011;9441;51.420;7.036;2022-07-23T03:44:27;38.65;;;17.10;;
18623;SDS011;9441;51.420;7.036;2022-07-23T03:45:29;30.08;;;16.05;;
18623;SDS011;9441;51.420;7.036;2022-07-23T03:46:30;29.73;;;17.55;;
18623;SDS011;9441;51.420;7.036;2022-07-23T03:47:32;25.83;;;15.88;;
18623;SDS011;9441;51.420;7.036;2022-07-23T03:48:33;38.42;;;18.38;;
18623;SDS011;9441;51.420;7.036;2022-07-23T03:49:35;28.45;;;16.80;;
18623;SDS011;9441;51.420;7.036;2022-07-23T03:50:37;26.88;;;15.57;;
18623;SDS011;9441;51.420;7.036;2022-07-23T03:51:39;27.15;;;16.70;;
18623;SDS011;9441;51.420;7.036;2022-07-23T03:52:40;25.67;;;16.65;;
18623;SDS011;9441;51.420;7.036;2022-07-23T03:53:42;24.13;;;15.27;;
18623;SDS011;9441;51.420;7.036;2022-07-23T03:54:43;26.58;;;16.02;;
18623;SDS011;9441;51.420;7.036;2022-07-23T03:55:45;27.95;;;15.80;;
18623;SDS011;9441;51.420;7.036;2022-07-23T03:56:47;23.40;;;14.85;;
18623;SDS011;9441;51.420;7.036;2022-07-23T03:57:49;26.88;;;15.80;;
18623;SDS011;9441;51.420;7.036;2022-07-23T03:58:52;22.98;;;15.10;;
18623;SDS011;9441;51.420;7.036;2022-07-23T03:59:54;22.88;;;15.50;;
18623;SDS011;9441;51.420;7.036;2022-07-23T04:00:55;26.33;;;17.20;;
18623;SDS011;9441;51.420;7.036;2022-07-23T04:01:57;27.67;;;16.73;;
18623;SDS011;9441;51.420;7.036;2022-07-23T04:02:59;27.75;;;17.05;;
18623;SDS011;9441;51.420;7.036;2022-07-23T04:04:02;27.63;;;15.75;;
18623;SDS011;9441;51.420;7.036;2022-07-23T04:05:04;29.50;;;15.82;;
18623;SDS011;9441;51.420;7.036;2022-07-23T04:06:06;25.27;;;14.63;;
18623;SDS011;9441;51.420;7.036;2022-07-23T04:07:09;25.58;;;14.98;;
18623;SDS011;9441;51.420;7.036;2022-07-23T04:08:12;28.15;;;16.08;;
18623;SDS011;9441;51.420;7.036;2022-07-23T04:09:17;35.67;;;14.88;;
18623;SDS011;9441;51.420;7.036;2022-07-23T04:10:19;25.23;;;15.20;;
18623;SDS011;9441;51.420;7.036;2022-07-23T04:11:21;20.95;;;14.55;;
18623;SDS011;9441;51.420;7.036;2022-07-23T04:12:23;21.65;;;14.07;;
18623;SDS011;9441;51.420;7.036;2022-07-23T04:13:26;26.73;;;14.15;;
18623;SDS011;9441;51.420;7.036;2022-07-23T04:14:30;24.00;;;15.27;;
18623;SDS011;9441;51.420;7.036;2022-07-23T04:15:32;25.88;;;15.52;;
18623;SDS011;9441;51.420;7.036;2022-07-23T04:16:33;24.65;;;15.20;;
18623;SDS011;9441;51.420;7.036;2022-07-23T04:17:35;23.35;;;14.90;;
18623;SDS011;9441;51.420;7.036;2022-07-23T04:18:36;27.23;;;15.98;;
18623;SDS011;9441;51.420;7.036;2022-07-23T04:19:45;30.00;;;16.50;;
18623;SDS011;9441;51.420;7.036;2022-07-23T04:20:50;24.45;;;15.82;;
18623;SDS011;9441;51.420;7.036;2022-07-23T04:21:52;23.65;;;15.02;;
18623;SDS011;9441;51.420;7.036;2022-07-23T04:22:53;27.13;;;14.70;;
18623;SDS011;9441;51.420;7.036;2022-07-23T04:23:56;27.60;;;15.35;;
18623;SDS011;9441;51.420;7.036;2022-07-23T04:24:57;23.17;;;13.10;;
18623;SDS011;9441;51.420;7.036;2022-07-23T04:25:59;27.50;;;12.90;;
18623;SDS011;9441;51.420;7.036;2022-07-23T04:27:01;20.88;;;12.52;;
18623;SDS011;9441;51.420;7.036;2022-07-23T04:28:05;20.92;;;13.68;;
18623;SDS011;9441;51.420;7.036;2022-07-23T04:29:06;20.70;;;13.40;;
18623;SDS011;9441;51.420;7.036;2022-07-23T04:30:10;23.70;;;14.00;;
18623;SDS011;9441;51.420;7.036;2022-07-23T04:31:11;19.45;;;13.90;;
18623;SDS011;9441;51.420;7.036;2022-07-23T04:32:14;22.85;;;14.07;;
18623;SDS011;9441;51.420;7.036;2022-07-23T04:33:15;19.23;;;14.05;;
18623;SDS011;9441;51.420;7.036;2022-07-23T04:34:18;20.25;;;14.13;;
18623;SDS011;9441;51.420;7.036;2022-07-23T04:35:20;21.90;;;14.18;;
18623;SDS011;9441;51.420;7.036;2022-07-23T04:36:24;22.02;;;13.38;;
18623;SDS011;9441;51.420;7.036;2022-07-23T04:37:25;22.90;;;13.52;;
18623;SDS011;9441;51.420;7.036;2022-07-23T04:38:27;25.63;;;14.25;;
18623;SDS011;9441;51.420;7.036;2022-07-23T04:39:33;19.83;;;13.40;;
18623;SDS011;9441;51.420;7.036;2022-07-23T04:40:35;22.75;;;14.13;;
18623;SDS011;9441;51.420;7.036;2022-07-23T04:41:36;26.05;;;13.77;;
18623;SDS011;9441;51.420;7.036;2022-07-23T04:42:38;19.63;;;13.23;;
18623;SDS011;9441;51.420;7.036;2022-07-23T04:43:39;18.55;;;13.15;;
18623;SDS011;9441;51.420;7.036;2022-07-23T04:44:41;23.20;;;13.98;;
18623;SDS011;9441;51.420;7.036;2022-07-23T04:45:44;22.45;;;14.13;;
18623;SDS011;9441;51.420;7.036;2022-07-23T04:46:47;22.55;;;13.80;;
18623;SDS011;9441;51.420;7.036;2022-07-23T04:47:48;24.75;;;14.38;;
18623;SDS011;9441;51.420;7.036;2022-07-23T04:48:50;21.98;;;13.68;;
18623;SDS011;9441;51.420;7.036;2022-07-23T04:49:52;25.27;;;14.90;;
18623;SDS011;9441;51.420;7.036;2022-07-23T04:50:54;20.40;;;13.60;;
18623;SDS011;9441;51.420;7.036;2022-07-23T04:52:00;23.50;;;13.95;;
18623;SDS011;9441;51.420;7.036;2022-07-23T04:53:03;18.98;;;12.60;;
18623;SDS011;9441;51.420;7.036;2022-07-23T04:54:04;22.88;;;13.07;;
18623;SDS011;9441;51.420;7.036;2022-07-23T04:55:07;24.25;;;14.07;;
18623;SDS011;9441;51.420;7.036;2022-07-23T04:56:08;27.10;;;14.68;;
18623;SDS011;9441;51.420;7.036;2022-07-23T04:57:10;21.92;;;14.48;;
18623;SDS011;9441;51.420;7.036;2022-07-23T04:58:11;23.10;;;14.88;;
18623;SDS011;9441;51.420;7.036;2022-07-23T04:59:14;29.10;;;15.32;;
18623;SDS011;9441;51.420;7.036;2022-07-23T05:00:16;23.85;;;15.63;;
18623;SDS011;9441;51.420;7.036;2022-07-23T05:01:19;25.42;;;15.13;;
18623;SDS011;9441;51.420;7.036;2022-07-23T05:02:22;23.88;;;15.48;;
18623;SDS011;9441;51.420;7.036;2022-07-23T05:03:23;25.55;;;14.88;;
18623;SDS011;9441;51.420;7.036;2022-07-23T05:04:25;27.60;;;15.50;;
18623;SDS011;9441;51.420;7.036;2022-07-23T05:05:26;26.50;;;15.35;;
18623;SDS011;9441;51.420;7.036;2022-07-23T05:06:33;27.40;;;15.38;;
18623;SDS011;9441;51.420;7.036;2022-07-23T05:07:34;28.35;;;16.55;;
18623;SDS011;9441;51.420;7.036;2022-07-23T05:08:36;27.42;;;16.05;;
18623;SDS011;9441;51.420;7.036;2022-07-23T05:09:37;25.33;;;16.05;;
18623;SDS011;9441;51.420;7.036;2022-07-23T05:10:39;22.40;;;16.10;;
18623;SDS011;9441;51.420;7.036;2022-07-23T05:11:40;19.02;;;14.07;;
18623;SDS011;9441;51.420;7.036;2022-07-23T05:12:42;24.15;;;15.00;;
18623;SDS011;9441;51.420;7.036;2022-07-23T05:13:44;25.45;;;15.77;;
18623;SDS011;9441;51.420;7.036;2022-07-23T05:14:46;30.67;;;15.80;;
18623;SDS011;9441;51.420;7.036;2022-07-23T05:15:47;28.85;;;14.93;;
18623;SDS011;9441;51.420;7.036;2022-07-23T05:16:50;25.52;;;15.68;;
18623;SDS011;9441;51.420;7.036;2022-07-23T05:17:56;23.85;;;15.07;;
18623;SDS011;9441;51.420;7.036;2022-07-23T05:18:58;23.45;;;14.63;;
18623;SDS011;9441;51.420;7.036;2022-07-23T05:19:59;24.55;;;15.70;;
18623;SDS011;9441;51.420;7.036;2022-07-23T05:21:01;23.98;;;15.23;;
18623;SDS011;9441;51.420;7.036;2022-07-23T05:22:03;25.77;;;15.82;;
18623;SDS011;9441;51.420;7.036;2022-07-23T05:23:06;32.08;;;16.70;;
18623;SDS011;9441;51.420;7.036;2022-07-23T05:24:07;24.95;;;15.13;;
18623;SDS011;9441;51.420;7.036;2022-07-23T05:25:09;28.92;;;16.52;;
18623;SDS011;9441;51.420;7.036;2022-07-23T05:26:11;26.13;;;16.52;;
18623;SDS011;9441;51.420;7.036;2022-07-23T05:27:13;31.90;;;17.63;;
18623;SDS011;9441;51.420;7.036;2022-07-23T05:28:16;30.13;;;17.30;;
18623;SDS011;9441;51.420;7.036;2022-07-23T05:29:18;27.00;;;16.95;;
18623;SDS011;9441;51.420;7.036;2022-07-23T05:30:19;27.02;;;17.55;;
18623;SDS011;9441;51.420;7.036;2022-07-23T05:31:24;30.42;;;18.38;;
18623;SDS011;9441;51.420;7.036;2022-07-23T05:32:26;29.88;;;17.48;;
18623;SDS011;9441;51.420;7.036;2022-07-23T05:33:39;26.80;;;17.00;;
18623;SDS011;9441;51.420;7.036;2022-07-23T05:34:40;35.03;;;19.65;;
18623;SDS011;9441;51.420;7.036;2022-07-23T05:35:42;34.03;;;18.10;;
18623;SDS011;9441;51.420;7.036;2022-07-23T05:37:10;32.78;;;18.52;;
18623;SDS011;9441;51.420;7.036;2022-07-23T05:38:12;34.80;;;18.52;;
18623;SDS011;9441;51.420;7.036;2022-07-23T05:39:14;36.15;;;19.88;;
18623;SDS011;9441;51.420;7.036;2022-07-23T05:40:17;32.90;;;20.27;;
18623;SDS011;9441;51.420;7.036;2022-07-23T05:41:18;34.80;;;18.95;;
18623;SDS011;9441;51.420;7.036;2022-07-23T05:42:20;33.78;;;19.70;;
18623;SDS011;9441;51.420;7.036;2022-07-23T05:43:21;31.75;;;19.35;;
18623;SDS011;9441;51.420;7.036;2022-07-23T05:44:24;38.92;;;21.08;;
18623;SDS011;9441;51.420;7.036;2022-07-23T05:45:27;32.15;;;19.60;;
18623;SDS011;9441;51.420;7.036;2022-07-23T05:46:29;35.10;;;19.73;;
18623;SDS011;9441;51.420;7.036;2022-07-23T05:47:41;39.28;;;21.50;;
18623;SDS011;9441;51.420;7.036;2022-07-23T05:48:44;36.42;;;21.15;;
18623;SDS011;9441;51.420;7.036;2022-07-23T05:50:13;35.85;;;20.73;;
18623;SDS011;9441;51.420;7.036;2022-07-23T05:51:20;38.35;;;21.17;;
18623;SDS011;9441;51.420;7.036;2022-07-23T05:52:23;36.78;;;21.52;;
18623;SDS011;9441;51.420;7.036;2022-07-23T05:54:00;36.72;;;21.05;;
18623;SDS011;9441;51.420;7.036;2022-07-23T05:55:07;34.20;;;21.70;;
18623;SDS011;9441;51.420;7.036;2022-07-23T05:56:09;35.50;;;21.75;;
18623;SDS011;9441;51.420;7.036;2022-07-23T05:57:12;32.75;;;19.58;;
18623;SDS011;9441;51.420;7.036;2022-07-23T05:58:13;39.40;;;20.65;;
18623;SDS011;9441;51.420;7.036;2022-07-23T05:59:15;31.90;;;20.60;;
18623;SDS011;9441;51.420;7.036;2022-07-23T06:00:16;39.88;;;21.67;;
18623;SDS011;9441;51.420;7.036;2022-07-23T06:01:20;45.88;;;24.75;;
18623;SDS011;9441;51.420;7.036;2022-07-23T06:02:36;44.25;;;24.50;;
18623;SDS011;9441;51.420;7.036;2022-07-23T06:03:41;41.45;;;24.92;;
18623;SDS011;9441;51.420;7.036;2022-07-23T06:04:43;42.70;;;25.05;;
18623;SDS011;9441;51.420;7.036;2022-07-23T06:05:57;44.33;;;24.58;;
18623;SDS011;9441;51.420;7.036;2022-07-23T06:06:58;44.65;;;24.77;;
18623;SDS011;9441;51.420;7.036;2022-07-23T06:08:00;38.30;;;23.38;;
18623;SDS011;9441;51.420;7.036;2022-07-23T06:09:03;45.42;;;24.40;;
18623;SDS011;9441;51.420;7.036;2022-07-23T06:10:06;43.13;;;26.40;;
18623;SDS011;9441;51.420;7.036;2022-07-23T06:11:08;40.10;;;25.17;;
18623;SDS011;9441;51.420;7.036;2022-07-23T06:12:10;42.53;;;25.35;;